createdAt,value
2023-02-02T00:01:38.509Z,67.54
2023-02-02T00:04:05.324Z,67.50
2023-02-02T00:06:32.296Z,67.46
2023-02-02T00:09:00.886Z,67.64
2023-02-02T00:11:28.417Z,67.10
2023-02-02T00:13:54.984Z,67.11
2023-02-02T00:16:35.811Z,67.20
2023-02-02T00:19:12.616Z,67.06
2023-02-02T00:21:39.691Z,67.55
2023-02-02T00:24:08.399Z,67.00
2023-02-02T00:26:35.259Z,67.15
2023-02-02T00:29:02.214Z,67.17
2023-02-02T00:31:28.669Z,66.83
2023-02-02T00:33:55.235Z,67.22
2023-02-02T00:36:22.040Z,67.25
2023-02-02T00:38:49.776Z,67.47
2023-02-02T00:41:16.782Z,66.97
2023-02-02T00:43:43.426Z,67.26
2023-02-02T00:46:14.563Z,66.98
2023-02-02T00:48:40.983Z,67.33
2023-02-02T00:51:07.505Z,67.12
2023-02-02T00:53:33.939Z,67.06
2023-02-02T00:56:00.382Z,67.33
2023-02-02T00:58:27.032Z,67.60
2023-02-02T01:00:53.539Z,67.47
2023-02-02T01:03:20.032Z,67.47
2023-02-02T01:05:46.589Z,67.73
2023-02-02T01:08:13.039Z,67.71
2023-02-02T01:10:39.490Z,67.53
2023-02-02T01:13:06.358Z,67.53
2023-02-02T01:15:32.848Z,67.29
2023-02-02T01:17:59.340Z,67.67
2023-02-02T01:20:25.964Z,67.65
2023-02-02T01:22:52.709Z,67.46
2023-02-02T01:25:19.396Z,67.39
2023-02-02T01:27:45.949Z,67.31
2023-02-02T01:30:13.025Z,67.38
2023-02-02T01:32:39.420Z,66.99
2023-02-02T01:35:06.363Z,67.08
2023-02-02T01:37:32.820Z,67.43
2023-02-02T01:39:59.648Z,67.25
2023-02-02T01:42:26.191Z,67.46
2023-02-02T01:44:52.711Z,67.22
2023-02-02T01:47:23.054Z,67.12
2023-02-02T01:49:49.785Z,67.30
2023-02-02T01:52:18.994Z,67.42
2023-02-02T01:54:50.831Z,67.51
2023-02-02T01:57:24.894Z,67.77
2023-02-02T01:59:53.025Z,67.72
2023-02-02T02:02:19.700Z,67.80
2023-02-02T02:04:47.407Z,67.37
2023-02-02T02:07:13.942Z,67.57
2023-02-02T02:09:40.374Z,67.61
2023-02-02T02:12:15.463Z,67.49
2023-02-02T02:15:03.598Z,67.50
2023-02-02T02:17:35.618Z,67.60
2023-02-02T02:20:54.891Z,67.47
2023-02-02T02:24:14.101Z,67.85
2023-02-02T02:26:49.525Z,67.57
2023-02-02T02:29:35.666Z,67.95
2023-02-02T02:32:10.931Z,67.79
2023-02-02T02:34:55.112Z,67.79
2023-02-02T02:37:36.417Z,67.82
2023-02-02T02:40:18.917Z,67.90
2023-02-02T02:42:55.574Z,67.72
2023-02-02T02:45:24.433Z,67.92
2023-02-02T02:47:52.312Z,67.96
2023-02-02T02:50:18.854Z,68.10
2023-02-02T02:52:47.659Z,68.16
2023-02-02T02:55:14.813Z,68.43
2023-02-02T02:58:15.476Z,68.41
2023-02-02T03:00:57.487Z,68.37
2023-02-02T03:03:43.118Z,68.56
2023-02-02T03:06:12.510Z,68.56
2023-02-02T03:08:55.145Z,68.50
2023-02-02T03:11:21.606Z,68.52
2023-02-02T03:13:48.885Z,68.85
2023-02-02T03:16:16.583Z,68.69
2023-02-02T03:18:43.212Z,68.70
2023-02-02T03:21:09.754Z,68.88
2023-02-02T03:23:36.103Z,68.86
2023-02-02T03:26:02.834Z,68.90
2023-02-02T03:28:29.862Z,68.38
2023-02-02T03:30:58.855Z,68.76
2023-02-02T03:33:25.317Z,68.80
2023-02-02T03:35:51.825Z,68.96
2023-02-02T03:38:18.575Z,68.31
2023-02-02T03:40:45.008Z,68.56
2023-02-02T03:43:11.565Z,68.75
2023-02-02T03:45:40.662Z,68.46
2023-02-02T03:48:07.166Z,68.23
2023-02-02T03:50:33.807Z,68.35
2023-02-02T03:53:00.286Z,68.41
2023-02-02T03:55:26.769Z,68.45
2023-02-02T03:57:53.311Z,68.55
2023-02-02T04:00:20.125Z,68.64
2023-02-02T04:02:46.633Z,68.35
2023-02-02T04:05:13.050Z,68.61
2023-02-02T04:07:39.994Z,68.92
2023-02-02T04:10:06.560Z,68.42
2023-02-02T04:12:32.924Z,68.50
2023-02-02T04:14:59.353Z,68.45
2023-02-02T04:17:25.717Z,68.41
2023-02-02T04:19:58.016Z,68.74
2023-02-02T04:22:26.079Z,68.83
2023-02-02T04:24:52.631Z,68.70
2023-02-02T04:27:19.022Z,68.91
2023-02-02T04:29:45.468Z,68.86
2023-02-02T04:32:11.957Z,68.87
2023-02-02T04:34:38.309Z,68.93
2023-02-02T04:37:04.674Z,68.76
2023-02-02T04:39:31.104Z,68.86
2023-02-02T04:41:57.501Z,68.80
2023-02-02T04:44:24.069Z,69.10
2023-02-02T04:46:50.483Z,69.10
2023-02-02T04:49:17.314Z,69.11
2023-02-02T04:51:44.068Z,68.63
2023-02-02T04:54:10.488Z,68.82
2023-02-02T04:56:36.919Z,68.61
2023-02-02T04:59:03.556Z,68.89
2023-02-02T05:01:30.750Z,68.86
2023-02-02T05:03:57.452Z,68.40
2023-02-02T05:06:23.894Z,68.61
2023-02-02T05:08:50.497Z,68.53
2023-02-02T05:11:20.052Z,68.36
2023-02-02T05:13:47.690Z,68.64
2023-02-02T05:16:14.484Z,68.55
2023-02-02T05:18:42.513Z,68.74
2023-02-02T05:21:09.469Z,68.25
2023-02-02T05:23:36.016Z,68.11
2023-02-02T05:26:02.438Z,68.39
2023-02-02T05:28:29.350Z,68.39
2023-02-02T05:30:55.809Z,68.37
2023-02-02T05:33:22.243Z,68.62
2023-02-02T05:35:49.477Z,68.50
2023-02-02T05:38:16.558Z,68.40
2023-02-02T05:40:42.943Z,68.49
2023-02-02T05:43:09.369Z,68.71
2023-02-02T05:45:35.819Z,68.58
2023-02-02T05:48:02.264Z,68.64
2023-02-02T05:50:28.643Z,68.58
2023-02-02T05:52:55.025Z,68.53
2023-02-02T05:55:21.361Z,68.72
2023-02-02T05:57:47.754Z,68.59
2023-02-02T06:00:14.462Z,68.90
2023-02-02T06:02:40.895Z,69.06
2023-02-02T06:05:07.706Z,69.13
2023-02-02T06:07:34.124Z,69.10
2023-02-02T06:10:00.475Z,68.61
2023-02-02T06:12:26.818Z,68.60
2023-02-02T06:14:53.159Z,68.67
2023-02-02T06:17:19.509Z,68.42
2023-02-02T06:19:45.873Z,68.45
2023-02-02T06:22:12.239Z,68.26
2023-02-02T06:24:38.651Z,68.48
2023-02-02T06:27:05.438Z,68.17
2023-02-02T06:29:31.822Z,67.88
2023-02-02T06:31:58.504Z,67.89
2023-02-02T06:34:24.922Z,68.25
2023-02-02T06:36:51.239Z,68.46
2023-02-02T06:39:17.619Z,67.82
2023-02-02T06:41:46.495Z,67.94
2023-02-02T06:44:15.261Z,67.97
2023-02-02T06:46:42.244Z,67.96
2023-02-02T06:49:09.052Z,68.42
2023-02-02T06:51:35.504Z,67.94
2023-02-02T06:54:03.784Z,67.89
2023-02-02T06:56:30.180Z,68.10
2023-02-02T06:58:56.645Z,67.49
2023-02-02T07:01:23.058Z,68.24
2023-02-02T07:03:51.075Z,68.40
2023-02-02T07:06:20.486Z,68.34
2023-02-02T07:08:56.017Z,68.31
2023-02-02T07:11:28.827Z,68.38
2023-02-02T07:14:01.642Z,68.43
2023-02-02T07:16:28.157Z,68.71
2023-02-02T07:18:54.619Z,68.34
2023-02-02T07:21:35.410Z,68.22
2023-02-02T07:24:02.827Z,68.49
2023-02-02T07:26:29.415Z,68.42
2023-02-02T07:28:55.889Z,68.82
2023-02-02T07:31:25.587Z,68.87
2023-02-02T07:33:52.975Z,68.88
2023-02-02T07:36:21.455Z,68.79
2023-02-02T07:38:48.686Z,68.97
2023-02-02T07:41:16.193Z,68.85
2023-02-02T07:43:42.924Z,68.51
2023-02-02T07:46:12.660Z,68.99
2023-02-02T07:48:39.638Z,68.71
2023-02-02T07:51:08.974Z,69.03
2023-02-02T07:53:35.718Z,69.04
2023-02-02T07:56:10.212Z,69.12
2023-02-02T07:58:37.243Z,68.70
2023-02-02T08:01:05.696Z,69.18
2023-02-02T08:03:32.859Z,69.35
2023-02-02T08:05:59.523Z,68.88
2023-02-02T08:08:26.100Z,69.04
2023-02-02T08:10:54.080Z,69.00
2023-02-02T08:13:20.894Z,68.91
2023-02-02T08:15:47.391Z,69.17
2023-02-02T08:18:13.853Z,68.96
2023-02-02T08:20:40.268Z,68.85
2023-02-02T08:23:13.392Z,68.55
2023-02-02T08:25:40.041Z,68.61
2023-02-02T08:28:06.376Z,68.45
2023-02-02T08:30:35.028Z,68.51
2023-02-02T08:33:01.473Z,68.44
2023-02-02T08:35:27.883Z,68.65
2023-02-02T08:37:54.292Z,68.60
2023-02-02T08:40:20.775Z,68.84
2023-02-02T08:42:51.013Z,68.78
2023-02-02T08:46:02.073Z,69.39
2023-02-02T08:48:11.605Z,68.96
2023-02-02T08:50:39.275Z,69.21
2023-02-02T08:53:06.060Z,69.56
2023-02-02T08:55:32.431Z,68.93
2023-02-02T08:57:58.771Z,68.97
2023-02-02T09:00:25.487Z,69.16
2023-02-02T09:02:51.814Z,69.18
2023-02-02T09:05:18.828Z,69.19
2023-02-02T09:07:45.791Z,68.78
2023-02-02T09:10:12.120Z,68.91
2023-02-02T09:12:38.448Z,68.72
2023-02-02T09:15:05.240Z,68.56
2023-02-02T09:17:31.583Z,69.03
2023-02-02T09:19:58.251Z,68.50
2023-02-02T09:22:24.643Z,68.43
2023-02-02T09:24:50.983Z,68.57
2023-02-02T09:27:17.310Z,68.46
2023-02-02T09:29:43.868Z,68.67
2023-02-02T09:32:10.420Z,68.78
2023-02-02T09:34:36.804Z,68.52
2023-02-02T09:37:03.342Z,68.58
2023-02-02T09:39:29.729Z,69.33
2023-02-02T09:42:20.331Z,68.64
2023-02-02T09:44:52.586Z,68.79
2023-02-02T09:47:29.433Z,68.76
2023-02-02T09:50:04.953Z,68.63
2023-02-02T09:52:41.887Z,68.49
2023-02-02T09:55:23.361Z,68.29
2023-02-02T09:57:55.463Z,68.81
2023-02-02T10:00:34.772Z,68.23
2023-02-02T10:03:09.263Z,68.38
2023-02-02T10:05:47.494Z,68.27
2023-02-02T10:08:33.868Z,68.77
2023-02-02T10:11:07.771Z,68.58
2023-02-02T10:13:37.978Z,68.18
2023-02-02T10:16:16.957Z,68.27
2023-02-02T10:18:56.910Z,68.22
2023-02-02T10:21:41.667Z,68.61
2023-02-02T10:24:21.088Z,68.12
2023-02-02T10:26:54.535Z,68.35
2023-02-02T10:29:23.949Z,68.08
2023-02-02T10:32:24.501Z,67.94
2023-02-02T10:35:10.918Z,67.70
2023-02-02T10:37:54.327Z,68.02
2023-02-02T10:41:02.018Z,67.89
2023-02-02T10:43:50.162Z,68.22
2023-02-02T10:46:22.874Z,68.03
2023-02-02T10:48:52.633Z,68.13
2023-02-02T10:51:28.875Z,67.83
2023-02-02T10:53:58.075Z,67.93
2023-02-02T10:56:39.836Z,67.83
2023-02-02T10:59:11.558Z,67.74
2023-02-02T11:01:38.014Z,67.93
2023-02-02T11:04:22.946Z,67.89
2023-02-02T11:06:49.448Z,68.02
2023-02-02T11:09:28.584Z,68.13
2023-02-02T11:12:01.270Z,68.21
2023-02-02T11:14:45.934Z,68.20
2023-02-02T11:17:26.091Z,67.95
2023-02-02T11:19:55.582Z,67.69
2023-02-02T11:22:38.379Z,67.70
2023-02-02T11:25:06.758Z,67.70
2023-02-02T11:27:39.871Z,67.51
2023-02-02T11:30:28.113Z,67.55
2023-02-02T11:32:55.710Z,67.24
2023-02-02T11:35:24.408Z,67.24
2023-02-02T11:38:03.025Z,66.87
2023-02-02T11:40:31.292Z,67.07
2023-02-02T11:43:01.140Z,66.37
2023-02-02T11:45:35.498Z,66.94
2023-02-02T11:48:16.547Z,67.19
2023-02-02T11:50:49.801Z,66.77
2023-02-02T11:53:25.041Z,66.68
2023-02-02T11:55:53.145Z,66.95
2023-02-02T11:58:29.788Z,66.84
2023-02-02T12:01:01.783Z,67.00
2023-02-02T12:03:36.894Z,67.19
2023-02-02T12:06:20.367Z,67.37
2023-02-02T12:08:47.066Z,67.24
2023-02-02T12:12:02.829Z,67.13
2023-02-02T12:14:39.753Z,67.08
2023-02-02T12:17:18.342Z,67.01
2023-02-02T12:20:13.729Z,67.30
2023-02-02T12:23:03.331Z,67.03
2023-02-02T12:25:38.550Z,66.96
2023-02-02T12:28:48.418Z,67.11
2023-02-02T12:31:30.445Z,66.74
2023-02-02T12:34:20.964Z,66.49
2023-02-02T12:37:14.505Z,66.84
2023-02-02T12:39:55.197Z,66.64
2023-02-02T12:42:49.021Z,66.82
2023-02-02T12:45:42.015Z,66.95
2023-02-02T12:48:38.593Z,66.82
2023-02-02T12:51:23.231Z,66.97
2023-02-02T12:54:33.453Z,66.94
2023-02-02T12:57:23.275Z,66.93
2023-02-02T13:00:03.067Z,66.88
2023-02-02T13:02:40.991Z,66.76
2023-02-02T13:05:10.088Z,66.58
2023-02-02T13:07:39.717Z,66.56
2023-02-02T13:10:13.590Z,66.95
2023-02-02T13:12:45.043Z,66.73
2023-02-02T13:15:18.670Z,66.64
2023-02-02T13:17:51.052Z,66.91
2023-02-02T13:20:27.845Z,66.91
2023-02-02T13:22:59.019Z,66.86
2023-02-02T13:25:30.906Z,66.81
2023-02-02T13:28:01.385Z,66.88
2023-02-02T13:30:32.905Z,66.78
2023-02-02T13:33:17.308Z,66.72
2023-02-02T13:35:54.077Z,67.04
2023-02-02T13:38:26.088Z,66.59
2023-02-02T13:41:03.413Z,66.54
2023-02-02T13:43:47.673Z,66.83
2023-02-02T13:46:29.297Z,66.90
2023-02-02T13:49:14.015Z,66.68
2023-02-02T13:51:46.356Z,66.37
2023-02-02T13:54:46.387Z,66.55
2023-02-02T13:57:48.597Z,66.77
2023-02-02T14:00:28.723Z,66.67
2023-02-02T14:03:03.745Z,66.80
2023-02-02T14:05:40.189Z,66.68
2023-02-02T14:08:21.862Z,66.89
2023-02-02T14:10:54.407Z,66.98
2023-02-02T14:13:55.648Z,66.83
2023-02-02T14:16:43.865Z,67.24
2023-02-02T14:19:16.278Z,67.28
2023-02-02T14:21:42.534Z,67.09
2023-02-02T14:24:27.314Z,67.04
2023-02-02T14:26:54.874Z,66.92
2023-02-02T14:29:33.413Z,66.93
2023-02-02T14:32:24.633Z,67.19
2023-02-02T14:34:53.624Z,66.86
2023-02-02T14:37:52.571Z,67.19
2023-02-02T14:40:48.490Z,66.88
2023-02-02T14:43:44.185Z,66.74
2023-02-02T14:46:13.601Z,66.63
2023-02-02T14:48:42.692Z,67.47
2023-02-02T14:51:25.064Z,67.32
2023-02-02T14:53:54.871Z,67.08
2023-02-02T14:56:38.681Z,67.34
2023-02-02T14:59:07.460Z,67.25
2023-02-02T15:01:36.698Z,67.12
2023-02-02T15:04:21.383Z,67.33
2023-02-02T15:06:52.409Z,67.53
2023-02-02T15:09:33.414Z,67.36
2023-02-02T15:12:02.855Z,67.40
2023-02-02T15:14:35.300Z,67.63
2023-02-02T15:17:12.427Z,67.44
2023-02-02T15:19:42.424Z,67.66
2023-02-02T15:22:35.204Z,67.47
2023-02-02T15:25:12.433Z,67.67
2023-02-02T15:27:51.493Z,67.68
2023-02-02T15:30:24.083Z,67.57
2023-02-02T15:32:52.470Z,67.48
2023-02-02T15:35:23.615Z,67.21
2023-02-02T15:37:56.785Z,67.19
2023-02-02T15:40:25.750Z,67.42
2023-02-02T15:43:09.089Z,67.37
2023-02-02T15:45:44.340Z,67.25
2023-02-02T15:48:21.106Z,67.44
2023-02-02T15:50:51.303Z,67.43
2023-02-02T15:53:23.884Z,67.32
2023-02-02T15:55:50.371Z,67.41
2023-02-02T15:58:26.071Z,67.24
2023-02-02T16:01:13.049Z,67.32
2023-02-02T16:04:08.203Z,67.27
2023-02-02T16:06:34.901Z,67.10
2023-02-02T16:09:05.684Z,67.10
2023-02-02T16:11:32.085Z,67.50
2023-02-02T16:14:02.638Z,67.48
2023-02-02T16:16:39.925Z,67.64
2023-02-02T16:19:09.378Z,67.58
2023-02-02T16:21:40.735Z,67.72
2023-02-02T16:24:15.000Z,67.69
2023-02-02T16:26:41.792Z,67.71
2023-02-02T16:29:17.194Z,67.71
2023-02-02T16:31:46.424Z,67.52
2023-02-02T16:34:18.601Z,67.79
2023-02-02T16:37:03.632Z,68.16
2023-02-02T16:39:30.012Z,67.74
2023-02-02T16:42:08.340Z,67.69
2023-02-02T16:44:40.738Z,67.67
2023-02-02T16:47:08.648Z,67.97
2023-02-02T16:49:36.029Z,67.71
2023-02-02T16:52:13.983Z,67.63
2023-02-02T16:54:51.803Z,67.96
2023-02-02T16:57:22.860Z,67.65
2023-02-02T16:59:55.538Z,67.81
2023-02-02T17:02:31.151Z,67.98
2023-02-02T17:05:10.648Z,67.99
2023-02-02T17:07:38.658Z,68.19
2023-02-02T17:10:31.061Z,67.96
2023-02-02T17:13:01.822Z,67.98
2023-02-02T17:15:32.084Z,68.38
2023-02-02T17:18:00.770Z,67.96
2023-02-02T17:20:27.967Z,68.13
2023-02-02T17:23:07.032Z,68.04
2023-02-02T17:25:41.993Z,68.73
2023-02-02T17:28:14.615Z,68.65
2023-02-02T17:30:42.924Z,68.59
2023-02-02T17:33:14.630Z,69.05
2023-02-02T17:35:53.817Z,69.04
2023-02-02T17:38:23.219Z,68.87
2023-02-02T17:40:50.582Z,69.25
2023-02-02T17:43:16.977Z,69.06
2023-02-02T17:45:43.612Z,69.06
2023-02-02T17:48:12.421Z,69.16
2023-02-02T17:50:39.853Z,69.29
2023-02-02T17:53:06.715Z,69.23
2023-02-02T17:55:37.964Z,69.09
2023-02-02T17:58:04.375Z,69.10
2023-02-02T18:00:31.704Z,69.41
2023-02-02T18:03:21.382Z,69.46
2023-02-02T18:05:48.212Z,70.08
2023-02-02T18:08:15.130Z,70.02
2023-02-02T18:10:42.965Z,70.55
2023-02-02T18:13:19.260Z,70.33
2023-02-02T18:15:46.153Z,70.46
2023-02-02T18:18:12.916Z,70.79
2023-02-02T18:20:43.162Z,70.97
2023-02-02T18:23:09.651Z,71.07
2023-02-02T18:25:37.667Z,71.43
2023-02-02T18:28:04.174Z,71.51
2023-02-02T18:30:30.637Z,71.16
2023-02-02T18:32:57.042Z,71.25
2023-02-02T18:35:23.962Z,71.22
2023-02-02T18:37:51.348Z,71.29
2023-02-02T18:40:18.555Z,71.32
2023-02-02T18:42:45.024Z,71.40
2023-02-02T18:45:11.724Z,71.28
2023-02-02T18:47:41.038Z,71.42
2023-02-02T18:50:08.240Z,71.41
2023-02-02T18:52:34.959Z,71.44
2023-02-02T18:55:01.422Z,71.42
2023-02-02T18:57:29.689Z,71.48
2023-02-02T18:59:58.475Z,71.60
2023-02-02T19:02:25.822Z,71.30
2023-02-02T19:05:11.014Z,71.43
2023-02-02T19:07:55.453Z,71.42
2023-02-02T19:10:25.064Z,71.19
2023-02-02T19:13:03.202Z,71.25
2023-02-02T19:15:37.712Z,71.39
2023-02-02T19:18:13.228Z,71.27
2023-02-02T19:20:39.693Z,71.61
2023-02-02T19:23:13.659Z,71.37
2023-02-02T19:25:41.874Z,71.63
2023-02-02T19:28:29.923Z,71.52
2023-02-02T19:30:58.968Z,71.40
2023-02-02T19:33:39.237Z,71.52
2023-02-02T19:36:13.482Z,71.38
2023-02-02T19:38:39.839Z,71.42
2023-02-02T19:41:21.491Z,71.43
2023-02-02T19:44:01.276Z,71.36
2023-02-02T19:46:30.931Z,71.36
2023-02-02T19:49:27.056Z,71.64
2023-02-02T19:51:55.768Z,71.55
2023-02-02T19:54:27.941Z,71.48
2023-02-02T19:56:58.008Z,71.55
2023-02-02T19:59:26.408Z,71.36
2023-02-02T20:01:52.841Z,71.60
2023-02-02T20:04:20.125Z,71.60
2023-02-02T20:06:58.649Z,71.37
2023-02-02T20:09:33.782Z,71.23
2023-02-02T20:12:00.432Z,71.44
2023-02-02T20:14:33.120Z,71.30
2023-02-02T20:17:07.322Z,71.33
2023-02-02T20:19:39.990Z,71.22
2023-02-02T20:22:22.883Z,71.27
2023-02-02T20:24:49.961Z,71.26
2023-02-02T20:27:18.738Z,71.15
2023-02-02T20:29:50.904Z,71.02
2023-02-02T20:32:26.621Z,71.25
2023-02-02T20:34:57.100Z,71.10
2023-02-02T20:37:33.348Z,71.11
2023-02-02T20:40:03.049Z,71.22
2023-02-02T20:42:30.124Z,71.39
2023-02-02T20:44:58.081Z,71.07
2023-02-02T20:47:24.492Z,71.13
2023-02-02T20:49:50.982Z,70.99
2023-02-02T20:52:23.736Z,71.08
2023-02-02T20:54:51.997Z,71.12
2023-02-02T20:57:19.151Z,71.12
2023-02-02T20:59:45.605Z,71.03
2023-02-02T21:02:19.424Z,71.02
2023-02-02T21:04:47.644Z,70.89
2023-02-02T21:07:17.112Z,70.81
2023-02-02T21:09:48.297Z,70.87
2023-02-02T21:12:15.135Z,71.02
2023-02-02T21:14:41.805Z,70.90
2023-02-02T21:17:15.319Z,70.93
2023-02-02T21:19:42.952Z,70.95
2023-02-02T21:22:09.511Z,70.83
2023-02-02T21:24:35.915Z,70.84
2023-02-02T21:27:04.751Z,70.93
2023-02-02T21:29:32.481Z,70.80
2023-02-02T21:32:02.126Z,70.88
2023-02-02T21:34:28.913Z,70.76
2023-02-02T21:36:59.381Z,70.77
2023-02-02T21:39:35.144Z,70.60
2023-02-02T21:42:07.672Z,70.78
2023-02-02T21:44:39.952Z,70.74
2023-02-02T21:47:24.010Z,70.62
2023-02-02T21:49:50.737Z,70.78
2023-02-02T21:52:19.076Z,70.71
2023-02-02T21:54:46.602Z,70.74
2023-02-02T21:57:26.093Z,70.63
2023-02-02T21:59:56.435Z,70.59
2023-02-02T22:02:35.048Z,70.70
2023-02-02T22:05:10.728Z,70.67
2023-02-02T22:07:37.115Z,70.71
2023-02-02T22:10:22.752Z,70.58
2023-02-02T22:12:49.110Z,70.71
2023-02-02T22:15:20.591Z,70.51
2023-02-02T22:17:47.310Z,70.32
2023-02-02T22:20:23.382Z,70.42
2023-02-02T22:22:51.595Z,70.45
2023-02-02T22:25:17.910Z,70.45
2023-02-02T22:27:53.705Z,70.47
2023-02-02T22:30:37.012Z,70.38
2023-02-02T22:33:05.674Z,70.08
2023-02-02T22:35:33.345Z,70.23
2023-02-02T22:37:59.765Z,69.98
2023-02-02T22:40:27.185Z,70.12
2023-02-02T22:42:56.596Z,70.06
2023-02-02T22:45:23.696Z,70.16
2023-02-02T22:47:51.030Z,69.96
2023-02-02T22:50:19.707Z,70.00
2023-02-02T22:52:46.071Z,69.99
2023-02-02T22:55:13.289Z,69.91
2023-02-02T22:57:39.787Z,69.85
2023-02-02T23:00:13.848Z,69.81
2023-02-02T23:02:41.541Z,69.81
2023-02-02T23:05:09.879Z,69.64
2023-02-02T23:07:36.473Z,69.67
2023-02-02T23:10:02.971Z,69.64
2023-02-02T23:12:29.414Z,69.62
2023-02-02T23:14:55.840Z,69.40
2023-02-02T23:17:22.282Z,69.41
2023-02-02T23:19:48.679Z,69.36
2023-02-02T23:22:15.238Z,69.29
2023-02-02T23:24:41.986Z,69.20
2023-02-02T23:27:08.373Z,69.19
2023-02-02T23:29:34.735Z,69.05
2023-02-02T23:32:01.799Z,69.23
2023-02-02T23:34:28.224Z,69.07
2023-02-02T23:36:54.652Z,68.99
2023-02-02T23:39:21.032Z,69.17
2023-02-02T23:41:47.507Z,68.86
2023-02-02T23:44:13.932Z,69.07
2023-02-02T23:46:41.465Z,68.76
2023-02-02T23:49:08.029Z,68.82
2023-02-02T23:51:35.185Z,69.04
2023-02-02T23:54:01.828Z,68.96
2023-02-02T23:56:28.787Z,68.90
2023-02-02T23:58:55.127Z,68.95
